Toland, Pennsylvania
Current Conditions -  °F | °C
As of 11:53 PM on Wednesday 26 Nov 2014 (Local Time) from KTHV Reporting Station
Overcast Overcast  
Wind Chill: 34°   Ceiling: 5500
Heat Index: 34°   Visibility: 10mi
Dew Point: 31°   Wind: 3mph
Humidity: 89%   Direction: 290°WNW
Pressure: 29.97"   Gusts: NA
Location:  40.0362°N, 77.1908°W
Report Text: KTHV 270453Z AUTO 29003KT 10SM OVC055 01/M01 A2997 RMK AO2 SLP154 T00111006 400500006
Loading
Personal Weather Stations






























Interactive Weather Map New forecast layout! Learn more

10-Day Weather Forecast

Advertisements
Track Severe Weather on mobile